Time;durP1;ratioP1;P1;durP2;ratioP2;P2;SDS_P1;SDS_P2;PMS_P1;PMS_P2;Temp;Humidity;BMP_temperature;BMP_pressure;BME280_temperature;BME280_humidity;BME280_pressure;Samples;Min_cycle;Max_cycle;Signal;HPM_P1;HPM_P2
2022/06/03 00:00:08;;;;;;;3.63;2.90;;;11.10;93.50;;;;;;4979047;28;20069;-76
2022/06/03 00:03:04;;;;;;;3.25;2.60;;;11.20;93.60;;;;;;4975380;28;20038;-76
2022/06/03 00:05:30;;;;;;;;;;;11.20;93.80;;;;;;4965598;28;20045;-76
2022/06/03 00:08:31;;;;;;;5.20;2.60;;;11.20;94.10;;;;;;4969466;28;20561;-76
2022/06/03 00:11:25;;;;;;;2.97;2.67;;;11.20;93.80;;;;;;4968900;28;20110;-76
2022/06/03 00:13:53;;;;;;;2.40;2.05;;;11.20;93.20;;;;;;4971637;28;20030;-76
2022/06/03 00:16:45;;;;;;;2.50;2.30;;;11.20;93.40;;;;;;4964554;28;20034;-76
2022/06/03 00:19:29;;;;;;;3.08;2.30;;;11.10;93.50;;;;;;4975774;28;20046;-76
2022/06/03 00:22:20;;;;;;;3.58;2.10;;;11.10;93.30;;;;;;4978154;28;20049;-76
2022/06/03 00:25:01;;;;;;;2.17;2.00;;;11.10;92.80;;;;;;4972248;28;20097;-76
2022/06/03 00:27:51;;;;;;;2.75;2.08;;;11.00;92.60;;;;;;4969800;28;20141;-76
2022/06/03 00:30:29;;;;;;;2.78;1.92;;;10.90;92.30;;;;;;4968409;28;20034;-76
2022/06/03 00:33:14;;;;;;;2.60;2.30;;;10.80;92.10;;;;;;4970707;28;20765;-75
2022/06/03 00:35:43;;;;;;;2.50;2.20;;;10.70;92.40;;;;;;4966685;28;20619;-75
2022/06/03 00:38:19;;;;;;;3.80;2.90;;;10.60;93.00;;;;;;4973238;28;20038;-76
2022/06/03 00:41:05;;;;;;;3.28;2.78;;;10.60;93.70;;;;;;4971599;28;20145;-76
2022/06/03 00:43:58;;;;;;;3.42;2.65;;;10.70;94.10;;;;;;4965128;28;20042;-76
2022/06/03 00:46:51;;;;;;;3.47;2.95;;;10.70;94.20;;;;;;4976132;28;20041;-76
2022/06/03 00:49:42;;;;;;;4.15;3.20;;;10.70;94.50;;;;;;4973741;28;20182;-76
2022/06/03 00:52:43;;;;;;;4.35;2.85;;;10.80;94.80;;;;;;4971832;28;20038;-76
2022/06/03 00:55:41;;;;;;;2.33;2.05;;;10.80;94.50;;;;;;4969799;28;20479;-76
2022/06/03 00:58:38;;;;;;;2.78;2.22;;;10.70;93.30;;;;;;4967686;28;20038;-75
2022/06/03 01:01:04;;;;;;;2.42;2.22;;;10.70;93.30;;;;;;4970070;28;20027;-76
2022/06/03 01:03:49;;;;;;;3.90;2.28;;;10.60;93.10;;;;;;4976697;28;20042;-76
2022/06/03 01:06:18;;;;;;;2.75;2.45;;;10.60;92.50;;;;;;4970917;28;20439;-76
2022/06/03 01:09:02;;;;;;;2.28;2.08;;;10.50;92.70;;;;;;4969225;28;20114;-76
2022/06/03 01:11:36;;;;;;;3.33;2.65;;;10.50;93.20;;;;;;4976272;28;20137;-76
2022/06/03 01:14:26;;;;;;;3.85;2.45;;;10.50;94.20;;;;;;4967724;28;20381;-76
2022/06/03 01:17:26;;;;;;;2.42;2.17;;;10.50;93.80;;;;;;4972178;28;20030;-76
2022/06/03 01:20:15;;;;;;;2.95;2.33;;;10.60;93.50;;;;;;4977851;28;20041;-76
2022/06/03 01:23:01;;;;;;;4.90;2.33;;;10.50;93.00;;;;;;4972261;28;20039;-75
2022/06/03 01:25:56;;;;;;;3.80;2.85;;;10.40;93.00;;;;;;4972772;28;20675;-76
2022/06/03 01:29:04;;;;;;;3.70;3.30;;;10.40;93.60;;;;;;4972579;28;20030;-76
2022/06/03 01:31:57;;;;;;;4.43;2.92;;;10.50;94.30;;;;;;4973057;28;20035;-76
2022/06/03 01:34:32;;;;;;;3.95;2.70;;;10.50;94.80;;;;;;4976071;28;20042;-76
2022/06/03 01:37:15;;;;;;;6.32;2.50;;;10.60;94.30;;;;;;4979121;28;20034;-76
2022/06/03 01:39:50;;;;;;;4.30;2.58;;;10.60;93.60;;;;;;4973142;28;20062;-76
2022/06/03 01:42:15;;;;;;;3.47;2.55;;;10.50;92.50;;;;;;4970853;28;20039;-76
2022/06/03 01:45:32;;;;;;;2.65;2.15;;;10.40;92.20;;;;;;4980342;28;20081;-76
2022/06/03 01:48:03;;;;;;;4.20;2.15;;;10.30;92.40;;;;;;4917766;29;20028;-76
2022/06/03 01:50:57;;;;;;;2.55;2.35;;;10.20;92.60;;;;;;4966686;28;20035;-76
2022/06/03 01:53:55;;;;;;;2.60;2.10;;;10.20;92.50;;;;;;4971702;28;20047;-76
2022/06/03 01:56:36;;;;;;;2.33;2.13;;;10.10;92.70;;;;;;4930252;28;20043;-76
2022/06/03 01:59:20;;;;;;;3.63;2.15;;;10.00;92.90;;;;;;4978290;28;20141;-75
2022/06/03 02:01:46;;;;;;;2.38;2.17;;;10.00;93.00;;;;;;4974454;28;20030;-76
2022/06/03 02:04:44;;;;;;;2.35;1.90;;;10.00;92.90;;;;;;4977121;28;20108;-76
2022/06/03 02:07:22;;;;;;;2.50;2.30;;;9.90;92.90;;;;;;4946414;28;20497;-76
2022/06/03 02:10:13;;;;;;;2.47;2.28;;;9.80;93.10;;;;;;4973544;28;20134;-75
2022/06/03 02:12:54;;;;;;;2.90;2.33;;;9.80;93.20;;;;;;4981364;28;20044;-76
2022/06/03 02:15:41;;;;;;;2.35;2.05;;;9.80;93.30;;;;;;4971362;28;20050;-76
2022/06/03 02:18:47;;;;;;;3.50;2.47;;;9.80;93.60;;;;;;4974807;28;20030;-76
2022/06/03 02:21:27;;;;;;;2.42;2.10;;;9.80;93.90;;;;;;4976915;28;20125;-75
2022/06/03 02:24:18;;;;;;;2.88;2.45;;;9.80;94.00;;;;;;4978350;28;20034;-76
2022/06/03 02:27:10;;;;;;;3.05;2.58;;;9.80;94.20;;;;;;4977234;28;20062;-76
2022/06/03 02:32:44;;;;;;;3.40;3.10;;;9.90;94.40;;;;;;4977925;28;20073;-76
2022/06/03 02:35:35;;;;;;;4.22;2.90;;;9.80;94.30;;;;;;4977244;28;20038;-76
2022/06/03 02:38:31;;;;;;;3.67;2.88;;;9.80;94.20;;;;;;4976158;28;20488;-75
2022/06/03 02:41:32;;;;;;;3.40;3.10;;;9.90;94.60;;;;;;4978276;28;20034;-75
2022/06/03 02:44:23;;;;;;;3.47;2.70;;;10.00;95.10;;;;;;4906810;29;20107;-76
2022/06/03 02:47:13;;;;;;;3.28;2.97;;;10.00;94.60;;;;;;4975013;28;20126;-75
2022/06/03 02:50:17;;;;;;;3.25;2.95;;;10.00;94.80;;;;;;4980233;28;20422;-75
2022/06/03 02:53:20;;;;;;;6.05;3.00;;;10.10;94.90;;;;;;4979706;28;20112;-76
2022/06/03 02:56:25;;;;;;;2.97;2.53;;;10.10;94.20;;;;;;4978383;28;20049;-76
2022/06/03 02:59:15;;;;;;;3.35;2.65;;;10.00;93.80;;;;;;4954182;28;20061;-76
2022/06/03 03:01:56;;;;;;;3.28;2.60;;;10.00;93.80;;;;;;4974912;28;20144;-76
2022/06/03 03:04:43;;;;;;;2.85;2.58;;;9.90;93.70;;;;;;4975109;28;20133;-76
2022/06/03 03:07:15;;;;;;;4.00;2.45;;;9.90;93.60;;;;;;4975791;28;20030;-76
2022/06/03 03:10:15;;;;;;;2.72;2.45;;;9.80;93.70;;;;;;4974078;28;20031;-76
2022/06/03 03:12:47;;;;;;;2.65;2.45;;;9.80;93.60;;;;;;4975072;28;20045;-76
2022/06/03 03:15:40;;;;;;;2.97;2.75;;;9.80;93.70;;;;;;4972632;28;20030;-76
2022/06/03 03:18:15;;;;;;;2.90;2.60;;;9.80;94.10;;;;;;4996452;28;20031;-76
2022/06/03 03:21:12;;;;;;;3.20;2.45;;;9.80;93.90;;;;;;4978330;28;20039;-76
2022/06/03 03:24:05;;;;;;;3.22;2.72;;;9.80;93.70;;;;;;4974257;28;20034;-77
2022/06/03 03:27:07;;;;;;;2.88;2.53;;;9.90;93.30;;;;;;4969142;28;20030;-76
2022/06/03 03:29:58;;;;;;;2.45;2.25;;;9.80;93.20;;;;;;4974340;28;20031;-76
2022/06/03 03:32:46;;;;;;;2.30;2.10;;;9.80;93.20;;;;;;4979089;28;20788;-76
2022/06/03 03:35:21;;;;;;;5.10;2.92;;;9.80;93.30;;;;;;4973009;28;20053;-76
2022/06/03 03:37:59;;;;;;;3.17;2.40;;;9.80;93.50;;;;;;4972648;28;20026;-76
2022/06/03 03:40:33;;;;;;;6.00;2.70;;;9.80;93.60;;;;;;4977260;28;20712;-76
2022/06/03 03:43:35;;;;;;;2.40;2.20;;;9.80;93.60;;;;;;4979819;28;20049;-76
2022/06/03 03:46:38;;;;;;;4.22;2.70;;;9.80;93.70;;;;;;4917980;29;20175;-76
2022/06/03 03:49:36;;;;;;;3.75;2.78;;;9.80;93.90;;;;;;4981579;28;20038;-76
2022/06/03 03:52:02;;;;;;;3.15;2.47;;;9.90;94.20;;;;;;4953426;28;20806;-76
2022/06/03 03:54:49;;;;;;;2.85;2.53;;;9.90;94.10;;;;;;4981116;28;20109;-75
2022/06/03 03:57:21;;;;;;;2.40;2.20;;;9.90;94.10;;;;;;4972659;28;20068;-77
2022/06/03 03:59:54;;;;;;;3.50;2.78;;;10.00;94.30;;;;;;4974473;28;20109;-75
2022/06/03 04:02:48;;;;;;;5.82;2.70;;;10.10;94.60;;;;;;4978268;28;20053;-76
2022/06/03 04:05:19;;;;;;;4.38;2.88;;;10.10;94.40;;;;;;4975777;28;20042;-76
2022/06/03 04:08:23;;;;;;;3.95;3.30;;;10.20;94.30;;;;;;4971229;28;20027;-76
2022/06/03 04:11:07;;;;;;;4.57;2.63;;;10.20;94.10;;;;;;4977408;28;20034;-77
2022/06/03 04:13:58;;;;;;;3.92;2.53;;;10.30;94.20;;;;;;4971562;28;20088;-77
2022/06/03 04:17:01;;;;;;;4.72;2.83;;;10.30;94.30;;;;;;4973138;28;20045;-77
2022/06/03 04:19:45;;;;;;;3.95;2.97;;;10.40;94.50;;;;;;4977772;28;20031;-77
2022/06/03 04:22:37;;;;;;;3.72;3.13;;;10.40;94.60;;;;;;4977328;28;20042;-77
2022/06/03 04:25:37;;;;;;;4.82;3.47;;;10.50;94.90;;;;;;4952541;28;20074;-77
2022/06/03 04:28:18;;;;;;;3.95;3.25;;;10.60;95.10;;;;;;4976835;28;20388;-77
2022/06/03 04:31:03;;;;;;;5.65;4.22;;;10.80;95.30;;;;;;4980157;28;20034;-77
2022/06/03 04:33:50;;;;;;;5.03;3.60;;;10.90;95.30;;;;;;4972558;28;20046;-77
2022/06/03 04:37:07;;;;;;;5.20;3.75;;;10.90;95.20;;;;;;4969658;28;20034;-77
2022/06/03 04:40:17;;;;;;;5.77;3.80;;;11.00;95.20;;;;;;4942362;28;20120;-77
2022/06/03 04:42:49;;;;;;;4.82;3.60;;;11.20;95.10;;;;;;4976831;28;20113;-77
2022/06/03 04:45:56;;;;;;;4.70;3.45;;;11.20;95.00;;;;;;4975263;28;20103;-77
2022/06/03 04:48:50;;;;;;;4.30;3.67;;;11.30;95.10;;;;;;4972226;28;20201;-77
2022/06/03 04:51:53;;;;;;;3.90;3.42;;;11.40;95.10;;;;;;4970860;28;20043;-78
2022/06/03 04:54:44;;;;;;;4.65;3.30;;;11.60;95.20;;;;;;4970489;28;20057;-77
2022/06/03 04:57:44;;;;;;;4.32;3.30;;;11.70;95.00;;;;;;4975696;28;20042;-78
2022/06/03 05:00:31;;;;;;;4.15;3.15;;;11.90;94.80;;;;;;4971892;28;20097;-78
2022/06/03 05:03:35;;;;;;;3.70;2.95;;;12.00;94.70;;;;;;4976644;28;20651;-78
2022/06/03 05:06:30;;;;;;;5.13;3.67;;;12.20;94.60;;;;;;4975476;28;20552;-77
2022/06/03 05:09:20;;;;;;;4.82;3.75;;;12.30;94.50;;;;;;4957209;28;20038;-77
2022/06/03 05:12:17;;;;;;;4.95;3.38;;;12.40;94.40;;;;;;4983428;28;20560;-77
2022/06/03 05:14:59;;;;;;;4.15;3.53;;;12.60;94.30;;;;;;4976732;28;20034;-77
2022/06/03 05:17:51;;;;;;;4.50;3.78;;;12.80;94.20;;;;;;4978549;28;20046;-78
2022/06/03 05:20:29;;;;;;;3.78;3.38;;;13.30;93.80;;;;;;4979799;28;20038;-78
2022/06/03 05:23:13;;;;;;;6.72;3.45;;;13.60;93.10;;;;;;4982507;28;20387;-77
2022/06/03 05:26:13;;;;;;;4.53;3.35;;;13.90;92.60;;;;;;4980209;28;20390;-77
2022/06/03 05:28:57;;;;;;;4.60;3.53;;;14.50;91.80;;;;;;4975786;28;20034;-77
2022/06/03 05:31:38;;;;;;;4.45;3.47;;;14.90;90.60;;;;;;4974961;28;20589;-77
2022/06/03 05:34:12;;;;;;;6.57;3.45;;;14.90;90.20;;;;;;4979334;28;20126;-77
2022/06/03 05:37:04;;;;;;;4.60;2.70;;;14.80;89.80;;;;;;4974127;28;20038;-78
2022/06/03 05:39:58;;;;;;;2.78;2.53;;;14.80;89.70;;;;;;4971374;28;20693;-78
2022/06/03 05:43:02;;;;;;;4.00;2.78;;;14.80;89.10;;;;;;4976270;28;20106;-77
2022/06/03 05:45:58;;;;;;;2.85;2.40;;;14.80;89.10;;;;;;4972043;28;20624;-77
2022/06/03 05:48:40;;;;;;;2.33;2.10;;;14.90;88.40;;;;;;4973042;28;20034;-78
2022/06/03 05:51:42;;;;;;;5.05;2.50;;;15.00;88.30;;;;;;4983306;28;20048;-78
2022/06/03 05:54:29;;;;;;;2.65;2.13;;;15.10;87.30;;;;;;4980605;28;20033;-78
2022/06/03 05:57:18;;;;;;;3.08;2.00;;;15.30;87.00;;;;;;4976479;28;20063;-77
2022/06/03 06:00:12;;;;;;;3.45;2.10;;;15.50;84.60;;;;;;4969838;28;20054;-78
2022/06/03 06:03:05;;;;;;;4.97;1.77;;;15.70;83.40;;;;;;4986018;28;20471;-77
2022/06/03 06:05:46;;;;;;;3.75;1.90;;;15.80;83.30;;;;;;4973947;28;20026;-77
2022/06/03 06:08:12;;;;;;;1.67;1.50;;;16.10;80.60;;;;;;4973133;28;20866;-75
2022/06/03 06:11:06;;;;;;;2.80;1.75;;;16.60;79.60;;;;;;4974953;28;20101;-75
2022/06/03 06:14:23;;;;;;;3.78;1.77;;;16.80;78.00;;;;;;4982208;28;20117;-75
2022/06/03 06:16:52;;;;;;;4.68;1.75;;;17.30;74.20;;;;;;4947402;28;20038;-78
2022/06/03 06:19:27;;;;;;;1.50;1.27;;;17.50;71.40;;;;;;4980349;28;20038;-77
2022/06/03 06:22:16;;;;;;;3.10;1.50;;;17.40;72.00;;;;;;4975303;28;20066;-77
2022/06/03 06:24:50;;;;;;;3.55;1.27;;;17.40;70.40;;;;;;4972849;28;20080;-78
2022/06/03 06:27:57;;;;;;;5.57;1.80;;;17.30;70.50;;;;;;4974898;28;20483;-78
2022/06/03 06:31:00;;;;;;;3.78;1.50;;;17.40;68.20;;;;;;4976847;28;20039;-78
2022/06/03 06:33:57;;;;;;;1.90;1.23;;;17.40;67.10;;;;;;4978359;28;20410;-77
2022/06/03 06:37:02;;;;;;;1.70;1.08;;;17.40;66.90;;;;;;4974144;28;20159;-77
2022/06/03 06:39:51;;;;;;;3.30;1.42;;;17.50;65.60;;;;;;4964214;28;20061;-76
2022/06/03 06:42:28;;;;;;;2.53;1.40;;;17.70;66.50;;;;;;4983024;28;20070;-77
2022/06/03 06:45:03;;;;;;;1.83;1.20;;;17.80;65.40;;;;;;4978109;28;20045;-77
2022/06/03 06:47:35;;;;;;;3.47;1.10;;;17.90;64.80;;;;;;4980770;28;20050;-77
2022/06/03 06:50:25;;;;;;;1.98;1.10;;;18.00;64.60;;;;;;4970978;28;20027;-77
2022/06/03 06:53:10;;;;;;;2.33;1.25;;;18.10;64.40;;;;;;4970779;28;20042;-77
2022/06/03 06:56:12;;;;;;;2.38;0.98;;;18.30;63.70;;;;;;4973706;28;20030;-77
2022/06/03 06:58:50;;;;;;;1.45;1.10;;;18.60;61.90;;;;;;4974333;28;20049;-76
2022/06/03 07:01:43;;;;;;;4.93;1.10;;;18.70;61.10;;;;;;4974100;28;20035;-77
2022/06/03 07:04:36;;;;;;;1.95;1.10;;;18.70;60.40;;;;;;4969685;28;20039;-77
2022/06/03 07:07:23;;;;;;;2.13;1.17;;;18.80;61.20;;;;;;4973554;28;20047;-77
2022/06/03 07:10:32;;;;;;;1.20;0.95;;;18.90;60.70;;;;;;4977961;28;20578;-77
2022/06/03 07:13:09;;;;;;;3.75;1.15;;;19.00;59.90;;;;;;4906014;29;20032;-77
2022/06/03 07:15:44;;;;;;;1.83;1.30;;;19.10;59.80;;;;;;4971373;28;20046;-77
2022/06/03 07:21:13;;;;;;;1.85;1.00;;;19.40;57.50;;;;;;4981563;28;20045;-74
2022/06/03 07:23:49;;;;;;;3.58;1.10;;;19.50;57.70;;;;;;4970622;28;20038;-78
2022/06/03 07:26:33;;;;;;;2.58;1.10;;;19.50;57.80;;;;;;4977954;28;20126;-78
2022/06/03 07:29:21;;;;;;;1.05;1.00;;;19.60;57.40;;;;;;4974684;28;20057;-80
2022/06/03 07:32:08;;;;;;;4.90;1.15;;;19.70;55.50;;;;;;4971983;28;20019;-78
2022/06/03 07:34:59;;;;;;;1.63;0.93;;;19.70;56.20;;;;;;4971161;28;20038;-77
2022/06/03 07:37:43;;;;;;;0.90;0.85;;;19.80;55.60;;;;;;4972286;28;20630;-76
2022/06/03 07:40:28;;;;;;;11.38;1.60;;;19.80;54.90;;;;;;4974462;28;20533;-76
2022/06/03 07:43:06;;;;;;;2.80;1.23;;;19.90;55.10;;;;;;4980105;28;20057;-76
2022/06/03 07:45:54;;;;;;;2.72;1.00;;;20.00;54.60;;;;;;4976224;28;20494;-79
2022/06/03 07:48:23;;;;;;;0.95;0.90;;;20.00;53.50;;;;;;4968710;28;20039;-75
2022/06/03 07:51:31;;;;;;;2.75;1.20;;;20.00;53.20;;;;;;4975237;28;20041;-76
2022/06/03 07:54:11;;;;;;;2.33;1.20;;;20.10;53.20;;;;;;4952168;28;20034;-74
2022/06/03 07:56:38;;;;;;;1.42;0.90;;;20.20;54.10;;;;;;4977752;28;20121;-80
2022/06/03 07:59:09;;;;;;;1.10;1.00;;;20.20;52.60;;;;;;4973470;28;20045;-79
2022/06/03 08:01:42;;;;;;;1.17;1.08;;;20.40;52.90;;;;;;4975230;28;20086;-80
2022/06/03 08:04:13;;;;;;;1.63;1.10;;;20.50;52.00;;;;;;4974503;28;20041;-78
2022/06/03 08:12:13;;;;;;;1.73;1.00;;;20.70;50.00;;;;;;4971447;28;20371;-75
2022/06/03 08:14:39;;;;;;;5.28;1.27;;;20.70;50.20;;;;;;4972912;28;20043;-75
2022/06/03 08:17:08;;;;;;;1.33;1.23;;;20.90;50.50;;;;;;4970913;28;20047;-75
2022/06/03 08:19:37;;;;;;;2.42;1.00;;;20.90;49.40;;;;;;4975907;28;20042;-74
2022/06/03 08:22:08;;;;;;;2.22;1.30;;;20.90;49.40;;;;;;4974704;28;20126;-73
2022/06/03 08:24:50;;;;;;;1.30;1.17;;;20.90;48.60;;;;;;4974613;28;20042;-75
2022/06/03 08:27:24;;;;;;;2.40;1.55;;;21.10;48.40;;;;;;4975905;28;20704;-74
2022/06/03 08:30:07;;;;;;;2.20;1.65;;;21.20;48.00;;;;;;4974034;28;20022;-75
2022/06/03 08:32:52;;;;;;;1.60;1.17;;;21.30;48.10;;;;;;4969951;28;20037;-73
2022/06/03 08:35:21;;;;;;;1.88;1.35;;;21.20;48.30;;;;;;4973243;28;20030;-73
2022/06/03 08:37:50;;;;;;;5.35;1.48;;;21.30;48.20;;;;;;4971978;28;20049;-76
2022/06/03 08:40:28;;;;;;;2.20;1.77;;;21.50;47.90;;;;;;4973145;28;20030;-73
2022/06/03 08:43:05;;;;;;;2.05;1.30;;;21.60;47.20;;;;;;4976295;28;20567;-77
2022/06/03 08:45:39;;;;;;;1.38;1.27;;;21.70;47.00;;;;;;4974327;28;20405;-77
2022/06/03 08:48:14;;;;;;;1.40;1.30;;;21.90;47.30;;;;;;4975478;28;20069;-77
2022/06/03 08:50:43;;;;;;;1.30;1.20;;;21.90;46.70;;;;;;4972803;28;20034;-76
2022/06/03 08:53:29;;;;;;;3.30;1.40;;;22.10;45.80;;;;;;4968890;28;20172;-77
2022/06/03 08:56:26;;;;;;;1.25;1.00;;;22.00;46.20;;;;;;4977980;28;20394;-77
2022/06/03 08:59:01;;;;;;;1.55;1.20;;;22.10;45.90;;;;;;4971301;28;20406;-76
2022/06/03 09:01:46;;;;;;;1.02;0.80;;;22.20;44.70;;;;;;4979017;28;20049;-75
2022/06/03 09:04:20;;;;;;;2.30;1.30;;;22.20;44.20;;;;;;4973049;28;20034;-75
2022/06/03 09:06:50;;;;;;;2.22;1.30;;;22.20;45.10;;;;;;4975445;28;20089;-75
2022/06/03 09:09:36;;;;;;;1.48;1.02;;;22.30;45.80;;;;;;4974916;28;20038;-75
2022/06/03 09:12:02;;;;;;;3.30;1.30;;;22.40;44.40;;;;;;4973837;28;20027;-75
2022/06/03 09:14:29;;;;;;;1.65;1.00;;;22.30;44.20;;;;;;4974774;28;20375;-75
2022/06/03 09:17:04;;;;;;;2.67;1.38;;;22.30;46.00;;;;;;4972174;28;20026;-76
2022/06/03 09:19:48;;;;;;;1.27;1.05;;;22.40;44.40;;;;;;4972180;28;20027;-74
2022/06/03 09:22:22;;;;;;;1.42;1.20;;;22.60;43.70;;;;;;4979225;28;20108;-73
2022/06/03 09:24:48;;;;;;;2.22;1.00;;;22.60;43.80;;;;;;4971362;28;20041;-75
2022/06/03 09:27:16;;;;;;;1.30;1.10;;;22.80;43.40;;;;;;4977137;28;20035;-71
2022/06/03 09:29:48;;;;;;;1.15;1.00;;;22.80;43.30;;;;;;4972562;28;20023;-75
2022/06/03 09:32:16;;;;;;;1.58;1.10;;;22.90;43.40;;;;;;4975332;28;20089;-76
2022/06/03 09:34:47;;;;;;;3.30;1.33;;;22.80;43.60;;;;;;4974872;28;20053;-75
2022/06/03 09:37:27;;;;;;;4.55;1.30;;;22.90;44.00;;;;;;4977521;28;20372;-76
2022/06/03 09:39:55;;;;;;;1.30;1.10;;;23.10;44.30;;;;;;4969247;28;20030;-71
2022/06/03 09:42:22;;;;;;;3.90;1.48;;;23.10;42.40;;;;;;4973137;28;20376;-75
2022/06/03 09:44:51;;;;;;;4.20;1.20;;;23.10;43.80;;;;;;4969757;28;20662;-75
2022/06/03 09:47:20;;;;;;;2.25;1.00;;;23.10;43.50;;;;;;4974947;28;20370;-76
2022/06/03 09:49:49;;;;;;;4.30;1.35;;;23.20;44.10;;;;;;4975551;28;20832;-76
2022/06/03 09:52:25;;;;;;;1.73;1.20;;;23.30;42.20;;;;;;4976852;28;20030;-76
2022/06/03 09:54:52;;;;;;;2.05;1.15;;;23.40;43.40;;;;;;4978454;28;20118;-75
2022/06/03 09:57:38;;;;;;;2.28;1.30;;;23.90;41.30;;;;;;4970683;28;20145;-76
2022/06/03 10:00:08;;;;;;;2.17;1.10;;;24.30;40.70;;;;;;4979382;28;20034;-76
2022/06/03 10:02:41;;;;;;;0.73;0.70;;;24.30;40.80;;;;;;4978115;28;20430;-76
2022/06/03 10:05:08;;;;;;;1.58;1.08;;;24.10;40.90;;;;;;4978713;28;20054;-76
2022/06/03 10:07:35;;;;;;;3.00;1.15;;;23.90;40.90;;;;;;4977414;28;20049;-76
2022/06/03 10:12:49;;;;;;;2.60;1.30;;;23.80;41.10;;;;;;4971974;28;20036;-75
2022/06/03 10:15:38;;;;;;;1.17;0.90;;;23.80;42.10;;;;;;4980534;28;20042;-74
2022/06/03 10:18:13;;;;;;;1.50;1.00;;;23.70;41.50;;;;;;4973115;28;20077;-77
2022/06/03 10:20:38;;;;;;;2.37;1.10;;;23.70;41.10;;;;;;4974539;28;20105;-74
2022/06/03 10:23:08;;;;;;;3.00;1.05;;;23.80;41.60;;;;;;4974220;28;20454;-74
2022/06/03 10:25:37;;;;;;;1.75;1.17;;;23.80;39.60;;;;;;4973400;28;20019;-78
2022/06/03 10:28:05;;;;;;;1.50;1.13;;;23.90;41.10;;;;;;4980031;28;20822;-76
2022/06/03 10:30:33;;;;;;;1.88;1.10;;;24.00;40.70;;;;;;4975043;28;20026;-76
2022/06/03 10:33:00;;;;;;;2.60;1.00;;;24.00;41.10;;;;;;4978303;28;20102;-75
2022/06/03 10:35:28;;;;;;;2.70;0.82;;;24.20;40.40;;;;;;4975441;28;20038;-75
2022/06/03 10:37:57;;;;;;;1.60;1.00;;;24.50;39.60;;;;;;4978141;28;20034;-76
2022/06/03 10:40:26;;;;;;;3.00;0.90;;;24.40;39.50;;;;;;4980484;28;20049;-80
2022/06/03 10:42:57;;;;;;;1.05;0.90;;;24.20;39.40;;;;;;4978802;28;20030;-72
2022/06/03 10:45:40;;;;;;;1.23;1.00;;;24.20;41.00;;;;;;4975599;28;20851;-71
2022/06/03 10:48:24;;;;;;;5.57;1.20;;;24.90;40.10;;;;;;4976989;28;20068;-72
2022/06/03 10:50:52;;;;;;;1.73;0.90;;;26.00;38.50;;;;;;4976554;28;20222;-74
2022/06/03 11:01:53;;;;;;;1.92;1.05;;;25.80;38.00;;;;;;4974534;28;20731;-72
2022/06/03 11:04:28;;;;;;;1.48;1.00;;;25.40;38.20;;;;;;4972019;28;20078;-74
2022/06/03 11:06:55;;;;;;;1.07;0.90;;;25.10;38.90;;;;;;4980087;28;20126;-74
2022/06/03 11:09:23;;;;;;;0.80;0.80;;;25.00;39.90;;;;;;4974653;28;20030;-74
2022/06/03 11:11:52;;;;;;;0.90;0.90;;;25.00;39.50;;;;;;4969313;28;20026;-72
2022/06/03 11:14:25;;;;;;;2.83;1.00;;;24.90;39.10;;;;;;4978213;28;20034;-75
2022/06/03 11:17:02;;;;;;;1.00;1.00;;;24.80;39.80;;;;;;4975447;28;20486;-72
2022/06/03 11:19:37;;;;;;;1.67;0.90;;;24.80;39.60;;;;;;4974066;28;20036;-73
2022/06/03 11:22:11;;;;;;;;;;;24.70;39.00;;;;;;4970728;28;20120;-73
2022/06/03 11:24:38;;;;;;;2.63;1.20;;;24.80;40.10;;;;;;4974155;28;19917;-75
2022/06/03 11:27:07;;;;;;;6.45;1.00;;;24.70;39.20;;;;;;4975438;28;20035;-73
2022/06/03 11:29:37;;;;;;;1.23;1.00;;;24.70;40.30;;;;;;4976441;28;20039;-75
2022/06/03 11:32:07;;;;;;;6.10;4.10;;;24.80;39.80;;;;;;4975156;28;20037;-70
2022/06/03 11:34:54;;;;;;;10.05;4.80;;;24.70;41.10;;;;;;4973770;28;20045;-70
2022/06/03 11:37:31;;;;;;;5.32;2.83;;;24.70;40.00;;;;;;4973942;28;20046;-67
2022/06/03 11:40:10;;;;;;;4.45;2.40;;;24.50;39.40;;;;;;4975306;28;20042;-69
2022/06/03 11:42:47;;;;;;;2.78;1.00;;;24.50;39.40;;;;;;4975357;28;20062;-69
2022/06/03 11:45:28;;;;;;;2.17;1.48;;;24.40;38.90;;;;;;4974009;28;20038;-69
2022/06/03 11:48:10;;;;;;;3.30;2.08;;;24.50;38.80;;;;;;4976286;28;20041;-69
2022/06/03 11:50:36;;;;;;;2.72;1.63;;;24.50;39.50;;;;;;4978935;28;20034;-69
2022/06/03 11:53:03;;;;;;;3.47;1.38;;;24.60;39.10;;;;;;4973570;28;20042;-69
2022/06/03 11:55:32;;;;;;;6.20;2.65;;;24.60;40.20;;;;;;4978899;28;20494;-69
2022/06/03 11:58:21;;;;;;;2.50;1.60;;;24.70;39.20;;;;;;4978998;28;20589;-69
2022/06/03 12:00:57;;;;;;;1.23;1.13;;;24.70;39.60;;;;;;4969973;28;20038;-69
2022/06/03 12:03:35;;;;;;;0.93;0.93;;;24.90;40.50;;;;;;4970058;28;20035;-70
2022/06/03 12:06:10;;;;;;;2.35;0.85;;;25.00;39.00;;;;;;4977138;28;20133;-69
2022/06/03 12:08:46;;;;;;;4.55;1.13;;;24.90;38.00;;;;;;4970209;28;20034;-70
2022/06/03 12:14:36;;;;;;;3.22;0.90;;;24.80;38.70;;;;;;4972997;28;20039;-69
2022/06/03 12:17:11;;;;;;;1.35;0.85;;;24.80;39.00;;;;;;4969275;28;20050;-69
2022/06/03 12:19:46;;;;;;;0.68;0.68;;;24.80;37.90;;;;;;4974583;28;20060;-70
2022/06/03 12:22:30;;;;;;;1.23;1.02;;;24.80;37.20;;;;;;4971887;28;20105;-69
2022/06/03 12:25:01;;;;;;;1.95;1.30;;;24.80;37.30;;;;;;4976947;28;20069;-69
2022/06/03 12:27:40;;;;;;;1.30;1.13;;;24.80;38.30;;;;;;4979057;28;20065;-69
2022/06/03 12:30:14;;;;;;;4.35;1.40;;;24.90;37.90;;;;;;4977582;28;20034;-69
2022/06/03 12:32:59;;;;;;;1.33;1.00;;;24.90;38.60;;;;;;4987727;28;20022;-69
2022/06/03 12:35:44;;;;;;;2.05;1.00;;;25.10;38.00;;;;;;4972316;28;20038;-69
2022/06/03 12:38:19;;;;;;;0.98;0.90;;;25.10;38.80;;;;;;4975021;28;20109;-69
2022/06/03 12:40:46;;;;;;;1.50;1.15;;;25.20;38.10;;;;;;4976618;28;20036;-67
2022/06/03 12:43:29;;;;;;;3.33;0.90;;;25.20;37.70;;;;;;4975043;28;20046;-69
2022/06/03 12:46:00;;;;;;;1.35;0.90;;;25.20;37.20;;;;;;4970519;28;20070;-69
2022/06/03 12:48:35;;;;;;;1.90;0.80;;;25.20;36.10;;;;;;4988663;28;20098;-69
2022/06/03 12:51:17;;;;;;;1.20;0.80;;;25.10;36.60;;;;;;4972315;28;20031;-68
2022/06/03 12:53:45;;;;;;;1.92;0.90;;;25.10;36.50;;;;;;4973537;28;20042;-70
2022/06/03 12:56:24;;;;;;;1.83;1.10;;;25.30;38.20;;;;;;4972329;28;20031;-70
2022/06/03 12:58:58;;;;;;;4.30;1.00;;;25.40;38.60;;;;;;4975866;28;20498;-70
2022/06/03 13:01:34;;;;;;;1.35;1.00;;;25.40;36.30;;;;;;4975904;28;20043;-69
2022/06/03 13:04:26;;;;;;;1.10;0.90;;;25.40;36.50;;;;;;4974472;28;20057;-67
2022/06/03 13:07:27;;;;;;;2.30;0.98;;;25.50;37.50;;;;;;4973137;28;20050;-70
2022/06/03 13:10:07;;;;;;;0.90;0.90;;;25.60;35.80;;;;;;4975457;28;20026;-69
2022/06/03 13:12:34;;;;;;;1.90;0.93;;;25.60;37.60;;;;;;4977528;28;20026;-69
2022/06/03 13:15:21;;;;;;;1.10;1.02;;;25.60;37.30;;;;;;4977906;28;20088;-69
2022/06/03 13:20:47;;;;;;;0.80;0.80;;;25.50;35.30;;;;;;4968299;28;20454;-70
2022/06/03 13:23:19;;;;;;;1.67;0.98;;;25.60;36.50;;;;;;4970512;28;20038;-69
2022/06/03 13:25:45;;;;;;;1.33;0.70;;;25.50;36.40;;;;;;4974228;28;20023;-69
2022/06/03 13:28:20;;;;;;;1.52;0.80;;;25.50;37.00;;;;;;4975662;28;20026;-70
2022/06/03 13:31:04;;;;;;;1.13;1.02;;;25.40;36.20;;;;;;4977715;28;20045;-70
2022/06/03 13:33:30;;;;;;;1.60;0.90;;;25.50;35.20;;;;;;4976823;28;20061;-67
2022/06/03 13:36:09;;;;;;;1.02;0.90;;;25.70;35.90;;;;;;4972252;28;20041;-70
2022/06/03 13:38:42;;;;;;;1.30;0.82;;;25.60;34.30;;;;;;4974147;28;20042;-71
2022/06/03 13:44:44;;;;;;;9.98;3.60;;;25.70;37.60;;;;;;4976067;28;20043;-78
2022/06/03 13:47:20;;;;;;;2.47;2.05;;;25.70;36.80;;;;;;4975184;28;20549;-79
2022/06/03 13:50:01;;;;;;;1.92;1.20;;;25.50;36.70;;;;;;4977063;28;20137;-79
2022/06/03 13:52:30;;;;;;;7.65;4.03;;;25.30;37.10;;;;;;4980150;28;20071;-79
2022/06/03 13:55:05;;;;;;;7.88;2.88;;;25.30;37.20;;;;;;4975558;28;20038;-78
2022/06/03 13:57:37;;;;;;;2.90;1.70;;;25.40;37.60;;;;;;4977740;28;20037;-78
2022/06/03 14:00:46;;;;;;;3.35;1.65;;;25.60;36.60;;;;;;4973429;28;20148;-78
2022/06/03 14:03:15;;;;;;;1.92;1.40;;;26.00;36.60;;;;;;4967781;28;20422;-80
2022/06/03 14:05:54;;;;;;;2.25;1.85;;;26.20;36.10;;;;;;4968827;28;20019;-80
2022/06/03 14:08:39;;;;;;;2.67;1.20;;;26.30;36.00;;;;;;4972973;28;20054;-80
2022/06/03 14:11:04;;;;;;;1.42;1.10;;;26.30;36.80;;;;;;4975613;28;20034;-79
2022/06/03 14:13:36;;;;;;;1.13;1.02;;;26.30;36.00;;;;;;4977338;28;20878;-78
2022/06/03 14:16:20;;;;;;;5.88;1.27;;;26.20;34.40;;;;;;4974910;28;20486;-79
2022/06/03 14:18:49;;;;;;;1.17;1.02;;;26.10;35.00;;;;;;4968820;28;20026;-79
2022/06/03 14:21:54;;;;;;;9.02;2.72;;;26.10;36.40;;;;;;4975654;28;20105;-78
2022/06/03 14:24:29;;;;;;;5.32;3.97;;;26.20;36.00;;;;;;4918450;29;20043;-78
2022/06/03 14:27:17;;;;;;;3.20;2.40;;;26.30;36.00;;;;;;4969602;28;20741;-78
2022/06/03 14:29:57;;;;;;;3.58;2.28;;;26.20;35.10;;;;;;4979452;28;20066;-78
2022/06/03 14:32:25;;;;;;;2.95;1.50;;;26.20;35.30;;;;;;4980635;28;20101;-78
2022/06/03 14:34:57;;;;;;;1.63;1.20;;;26.20;36.30;;;;;;4969461;28;20094;-78